createdAt,value
2022-12-16T00:01:24.291Z,93.83
2022-12-16T00:03:55.036Z,90.13
2022-12-16T00:06:23.055Z,85.57
2022-12-16T00:08:49.504Z,90.13
2022-12-16T00:11:15.986Z,86.20
2022-12-16T00:13:42.470Z,89.43
2022-12-16T00:16:13.931Z,94.90
2022-12-16T00:18:41.116Z,91.93
2022-12-16T00:21:08.402Z,92.17
2022-12-16T00:23:36.612Z,93.00
2022-12-16T00:26:04.030Z,95.87
2022-12-16T00:28:31.046Z,94.73
2022-12-16T00:30:57.738Z,94.30
2022-12-16T00:33:26.173Z,95.87
2022-12-16T00:35:53.568Z,85.43
2022-12-16T00:38:22.389Z,83.80
2022-12-16T00:40:48.828Z,89.10
2022-12-16T00:43:15.538Z,95.00
2022-12-16T00:45:42.003Z,90.20
2022-12-16T00:48:08.619Z,88.57
2022-12-16T00:50:35.968Z,86.63
2022-12-16T00:53:02.870Z,88.43
2022-12-16T00:55:29.432Z,84.30
2022-12-16T00:57:55.856Z,83.77
2022-12-16T01:00:23.626Z,84.60
2022-12-16T01:02:51.109Z,83.90
2022-12-16T01:05:20.903Z,81.10
2022-12-16T01:07:48.330Z,76.77
2022-12-16T01:10:15.195Z,83.90
2022-12-16T01:12:41.650Z,82.47
2022-12-16T01:15:09.229Z,89.93
2022-12-16T01:17:35.712Z,83.00
2022-12-16T01:20:02.786Z,82.70
2022-12-16T01:22:32.770Z,80.03
2022-12-16T01:24:59.938Z,82.73
2022-12-16T01:27:27.210Z,78.63
2022-12-16T01:29:53.669Z,82.80
2022-12-16T01:32:22.170Z,85.67
2022-12-16T01:34:55.121Z,80.07
2022-12-16T01:37:23.556Z,81.63
2022-12-16T01:39:50.482Z,75.70
2022-12-16T01:42:19.853Z,84.57
2022-12-16T01:44:48.440Z,78.30
2022-12-16T01:47:20.804Z,86.63
2022-12-16T01:49:51.579Z,81.37
2022-12-16T01:52:30.461Z,71.13
2022-12-16T01:55:07.241Z,78.13
2022-12-16T01:57:37.141Z,81.30
2022-12-16T02:00:06.244Z,83.13
2022-12-16T02:02:33.836Z,82.27
2022-12-16T02:05:19.227Z,87.40
2022-12-16T02:07:53.811Z,86.70
2022-12-16T02:10:27.879Z,83.13
2022-12-16T02:13:05.888Z,85.10
2022-12-16T02:15:42.931Z,86.93
2022-12-16T02:18:24.531Z,89.43
2022-12-16T02:21:05.817Z,86.43
2022-12-16T02:23:53.203Z,96.80
2022-12-16T02:26:48.048Z,91.53
2022-12-16T02:29:39.236Z,85.00
2022-12-16T02:32:22.175Z,80.63
2022-12-16T02:34:57.531Z,92.33
2022-12-16T02:37:52.970Z,82.60
2022-12-16T02:40:28.056Z,93.87
2022-12-16T02:43:00.372Z,96.23
2022-12-16T02:45:28.937Z,91.97
2022-12-16T02:47:55.440Z,90.07
2022-12-16T02:50:33.733Z,82.17
2022-12-16T02:53:00.757Z,91.30
2022-12-16T02:55:56.410Z,90.23
2022-12-16T02:58:48.573Z,83.30
2022-12-16T03:01:25.269Z,79.70
2022-12-16T03:04:01.559Z,85.23
2022-12-16T03:06:32.201Z,84.97
2022-12-16T03:09:00.544Z,90.20
2022-12-16T03:11:28.623Z,79.80
2022-12-16T03:13:56.196Z,87.53
2022-12-16T03:16:26.349Z,86.50
2022-12-16T03:18:55.512Z,92.60
2022-12-16T03:21:24.593Z,83.40
2022-12-16T03:24:02.015Z,84.20
2022-12-16T03:26:34.412Z,84.93
2022-12-16T03:29:05.169Z,84.37
2022-12-16T03:31:40.150Z,83.07
2022-12-16T03:34:33.657Z,87.60
2022-12-16T03:37:04.109Z,82.60
2022-12-16T03:39:34.025Z,81.87
2022-12-16T03:42:01.384Z,89.73
2022-12-16T03:44:28.162Z,90.13
2022-12-16T03:46:54.694Z,83.73
2022-12-16T03:49:22.868Z,91.53
2022-12-16T03:51:49.480Z,92.60
2022-12-16T03:54:16.094Z,95.37
2022-12-16T03:56:43.109Z,87.57
2022-12-16T03:59:09.593Z,88.13
2022-12-16T04:01:37.684Z,88.73
2022-12-16T04:04:04.300Z,93.90
2022-12-16T04:06:30.949Z,87.87
2022-12-16T04:08:57.357Z,93.27
2022-12-16T04:11:42.588Z,90.83
2022-12-16T04:14:28.159Z,82.50
2022-12-16T04:17:13.848Z,84.23
2022-12-16T04:19:58.989Z,83.30
2022-12-16T04:23:04.169Z,78.43
2022-12-16T04:25:35.906Z,82.70
2022-12-16T04:28:02.598Z,88.93
2022-12-16T04:30:31.128Z,89.40
2022-12-16T04:33:26.558Z,94.60
2022-12-16T04:36:11.851Z,85.03
2022-12-16T04:38:56.964Z,86.13
2022-12-16T04:41:42.465Z,89.67
2022-12-16T04:44:27.623Z,94.87
2022-12-16T04:47:12.622Z,94.37
2022-12-16T04:50:02.340Z,84.37
2022-12-16T04:52:47.648Z,95.50
2022-12-16T04:55:32.916Z,85.37
2022-12-16T04:58:19.676Z,101.43
2022-12-16T05:01:05.843Z,95.63
2022-12-16T05:03:51.940Z,90.97
2022-12-16T05:06:37.553Z,95.83
2022-12-16T05:09:22.989Z,97.30
2022-12-16T05:12:08.064Z,99.23
2022-12-16T05:14:53.543Z,88.40
2022-12-16T05:17:39.099Z,97.93
2022-12-16T05:20:24.565Z,92.37
2022-12-16T05:23:09.691Z,98.73
2022-12-16T05:25:54.561Z,91.93
2022-12-16T05:28:39.775Z,96.10
2022-12-16T05:31:25.334Z,99.33
2022-12-16T05:34:10.652Z,96.47
2022-12-16T05:36:55.686Z,93.93
2022-12-16T05:39:40.778Z,90.90
2022-12-16T05:42:25.899Z,89.57
2022-12-16T05:45:11.396Z,88.27
2022-12-16T05:47:56.241Z,95.80
2022-12-16T05:50:41.532Z,101.90
2022-12-16T05:53:26.672Z,96.83
2022-12-16T05:56:11.721Z,92.03
2022-12-16T05:58:56.730Z,92.80
2022-12-16T06:01:41.944Z,101.77
2022-12-16T06:04:26.919Z,102.87
2022-12-16T06:07:12.631Z,94.17
2022-12-16T06:09:57.739Z,104.20
2022-12-16T06:12:42.854Z,100.00
2022-12-16T06:15:28.587Z,104.67
2022-12-16T06:18:13.669Z,103.73
2022-12-16T06:20:58.831Z,107.07
2022-12-16T06:23:44.239Z,110.23
2022-12-16T06:26:29.289Z,99.07
2022-12-16T06:29:14.746Z,106.63
2022-12-16T06:31:59.760Z,109.73
2022-12-16T06:34:44.933Z,102.07
2022-12-16T06:37:30.105Z,112.17
2022-12-16T06:40:15.530Z,107.67
2022-12-16T06:43:01.208Z,110.43
2022-12-16T06:45:46.324Z,124.27
2022-12-16T06:48:31.778Z,113.80
2022-12-16T06:51:16.797Z,115.57
2022-12-16T06:54:02.051Z,114.40
2022-12-16T06:56:47.296Z,106.30
2022-12-16T06:59:32.573Z,117.37
2022-12-16T07:02:18.158Z,118.67
2022-12-16T07:05:03.752Z,114.30
2022-12-16T07:07:48.960Z,119.30
2022-12-16T07:10:34.221Z,112.43
2022-12-16T07:13:19.753Z,116.13
2022-12-16T07:16:05.949Z,112.73
2022-12-16T07:18:51.124Z,110.13
2022-12-16T07:21:37.925Z,114.30
2022-12-16T07:24:23.107Z,106.47
2022-12-16T07:27:08.366Z,112.70
2022-12-16T07:29:53.351Z,113.93
2022-12-16T07:32:38.471Z,110.17
2022-12-16T07:35:24.060Z,111.30
2022-12-16T07:38:09.111Z,112.13
2022-12-16T07:40:54.399Z,112.33
2022-12-16T07:43:40.105Z,111.93
2022-12-16T07:46:25.515Z,114.77
2022-12-16T07:49:10.789Z,113.93
2022-12-16T07:51:55.901Z,121.20
2022-12-16T07:54:41.200Z,104.20
2022-12-16T07:57:26.365Z,118.00
2022-12-16T08:00:11.500Z,115.23
2022-12-16T08:02:57.084Z,107.90
2022-12-16T08:05:42.250Z,114.90
2022-12-16T08:08:27.420Z,117.47
2022-12-16T08:11:12.442Z,104.97
2022-12-16T08:13:57.377Z,97.47
2022-12-16T08:16:42.495Z,98.70
2022-12-16T08:19:28.573Z,101.07
2022-12-16T08:22:13.769Z,122.90
2022-12-16T08:24:58.740Z,119.70
2022-12-16T08:27:43.931Z,115.67
2022-12-16T08:30:29.570Z,116.23
2022-12-16T08:33:19.283Z,109.77
2022-12-16T08:36:06.021Z,117.33
2022-12-16T08:38:53.045Z,122.00
2022-12-16T08:41:38.206Z,124.60
2022-12-16T08:44:23.888Z,123.80
2022-12-16T08:47:09.073Z,123.67
2022-12-16T08:49:57.724Z,116.17
2022-12-16T08:52:46.627Z,110.20
2022-12-16T08:55:34.711Z,114.47
2022-12-16T08:58:19.863Z,119.27
2022-12-16T09:01:25.039Z,116.10
2022-12-16T09:04:10.226Z,121.63
2022-12-16T09:06:55.590Z,116.83
2022-12-16T09:09:40.619Z,112.83
2022-12-16T09:12:25.879Z,121.83
2022-12-16T09:15:11.028Z,123.13
2022-12-16T09:17:55.985Z,102.90
2022-12-16T09:20:41.317Z,113.77
2022-12-16T09:23:26.747Z,120.30
2022-12-16T09:26:12.058Z,120.13
2022-12-16T09:28:57.263Z,122.40
2022-12-16T09:31:42.664Z,121.83
2022-12-16T09:34:27.927Z,117.90
2022-12-16T09:37:12.927Z,118.17
2022-12-16T09:39:58.355Z,111.53
2022-12-16T09:42:51.695Z,107.80
2022-12-16T09:46:08.213Z,109.30
2022-12-16T09:49:08.793Z,109.53
2022-12-16T09:51:55.608Z,97.57
2022-12-16T09:54:43.938Z,111.80
2022-12-16T09:57:29.111Z,107.33
2022-12-16T10:00:20.312Z,110.03
2022-12-16T10:03:09.243Z,118.50
2022-12-16T10:06:15.849Z,108.33
2022-12-16T10:09:06.403Z,106.27
2022-12-16T10:12:25.704Z,120.83
2022-12-16T10:15:19.699Z,115.23
2022-12-16T10:18:05.381Z,110.13
2022-12-16T10:21:02.248Z,113.27
2022-12-16T10:24:03.491Z,105.00
2022-12-16T10:27:06.487Z,97.43
2022-12-16T10:29:52.985Z,103.33
2022-12-16T10:33:06.263Z,123.07
2022-12-16T10:36:01.199Z,108.03
2022-12-16T10:38:55.279Z,110.87
2022-12-16T10:41:43.576Z,105.83
2022-12-16T10:44:41.677Z,105.90
2022-12-16T10:47:28.789Z,110.67
2022-12-16T10:50:14.410Z,100.27
2022-12-16T10:53:08.771Z,103.63
2022-12-16T10:56:05.813Z,114.27
2022-12-16T10:59:12.178Z,107.23
2022-12-16T11:01:57.372Z,111.50
2022-12-16T11:04:50.711Z,111.27
2022-12-16T11:07:42.982Z,113.57
2022-12-16T11:10:49.808Z,105.43
2022-12-16T11:13:48.173Z,104.80
2022-12-16T11:16:40.545Z,103.20
2022-12-16T11:19:38.272Z,114.27
2022-12-16T11:22:32.763Z,112.63
2022-12-16T11:25:32.283Z,99.90
2022-12-16T11:28:43.763Z,92.70
2022-12-16T11:31:33.102Z,95.90
2022-12-16T11:34:19.123Z,107.87
2022-12-16T11:37:05.518Z,104.90
2022-12-16T11:39:51.067Z,100.20
2022-12-16T11:42:40.863Z,105.60
2022-12-16T11:45:32.163Z,95.53
2022-12-16T11:48:24.309Z,90.80
2022-12-16T11:51:12.534Z,99.80
2022-12-16T11:54:14.353Z,109.87
2022-12-16T11:57:02.413Z,97.37
2022-12-16T12:00:01.423Z,102.20
2022-12-16T12:03:08.497Z,95.73
2022-12-16T12:06:30.544Z,95.73
2022-12-16T12:09:29.532Z,95.50
2022-12-16T12:12:35.450Z,97.37
2022-12-16T12:15:36.040Z,90.17
2022-12-16T12:18:27.197Z,89.07
2022-12-16T12:21:20.068Z,99.30
2022-12-16T12:24:23.462Z,91.70
2022-12-16T12:27:17.798Z,105.80
2022-12-16T12:30:22.597Z,104.23
2022-12-16T12:33:20.172Z,97.93
2022-12-16T12:36:36.397Z,98.33
2022-12-16T12:39:36.991Z,101.23
2022-12-16T12:42:49.830Z,98.30
2022-12-16T12:45:45.436Z,93.20
2022-12-16T12:48:37.095Z,90.23
2022-12-16T12:51:46.893Z,95.20
2022-12-16T12:54:55.860Z,89.37
2022-12-16T12:57:42.308Z,98.63
2022-12-16T13:00:36.395Z,92.57
2022-12-16T13:03:24.625Z,99.60
2022-12-16T13:06:10.718Z,90.83
2022-12-16T13:08:56.478Z,92.03
2022-12-16T13:11:42.918Z,98.17
2022-12-16T13:14:49.713Z,103.10
2022-12-16T13:17:39.045Z,104.80
2022-12-16T13:20:50.747Z,104.70
2022-12-16T13:23:53.361Z,96.60
2022-12-16T13:26:40.553Z,108.90
2022-12-16T13:29:44.710Z,109.40
2022-12-16T13:32:42.641Z,104.27
2022-12-16T13:35:27.596Z,103.20
2022-12-16T13:38:17.311Z,107.50
2022-12-16T13:41:12.587Z,99.33
2022-12-16T13:44:17.700Z,95.10
2022-12-16T13:47:13.187Z,103.63
2022-12-16T13:49:59.343Z,103.70
2022-12-16T13:53:03.285Z,107.43
2022-12-16T13:56:11.491Z,95.23
2022-12-16T13:59:00.162Z,111.93
2022-12-16T14:02:04.138Z,99.33
2022-12-16T14:04:58.385Z,97.77
2022-12-16T14:07:45.148Z,101.30
2022-12-16T14:10:44.000Z,107.63
2022-12-16T14:13:46.606Z,101.50
2022-12-16T14:16:44.419Z,103.83
2022-12-16T14:19:50.868Z,100.20
2022-12-16T14:23:03.160Z,104.07
2022-12-16T14:25:48.559Z,97.03
2022-12-16T14:28:47.543Z,101.40
2022-12-16T14:31:52.197Z,94.10
2022-12-16T14:34:49.335Z,91.47
2022-12-16T14:37:53.174Z,95.87
2022-12-16T14:40:41.614Z,92.20
2022-12-16T14:43:32.735Z,105.40
2022-12-16T14:46:18.478Z,100.37
2022-12-16T14:49:07.478Z,96.13
2022-12-16T14:51:57.227Z,92.43
2022-12-16T14:54:59.531Z,100.27
2022-12-16T14:57:46.864Z,93.20
2022-12-16T15:00:33.816Z,89.00
2022-12-16T15:03:35.395Z,96.23
2022-12-16T15:06:25.893Z,94.60
2022-12-16T15:09:13.864Z,91.37
2022-12-16T15:12:00.647Z,90.00
2022-12-16T15:14:49.148Z,84.63
2022-12-16T15:17:39.187Z,84.53
2022-12-16T15:20:33.978Z,90.60
2022-12-16T15:23:19.591Z,96.83
2022-12-16T15:26:08.676Z,84.97
2022-12-16T15:28:53.842Z,88.73
2022-12-16T15:31:43.988Z,82.77
2022-12-16T15:34:45.711Z,85.00
2022-12-16T15:37:38.664Z,82.37
2022-12-16T15:40:34.088Z,82.87
2022-12-16T15:43:19.375Z,79.57
2022-12-16T15:46:07.994Z,79.83
2022-12-16T15:48:54.773Z,78.23
2022-12-16T15:51:45.863Z,84.60
2022-12-16T15:54:35.361Z,82.87
2022-12-16T15:57:20.849Z,84.13
2022-12-16T16:00:17.170Z,80.53
2022-12-16T16:03:07.462Z,84.67
2022-12-16T16:05:54.484Z,81.60
2022-12-16T16:08:39.965Z,81.47
2022-12-16T16:11:24.967Z,83.43
2022-12-16T16:14:14.149Z,82.83
2022-12-16T16:17:00.029Z,79.90
2022-12-16T16:19:45.750Z,83.57
2022-12-16T16:22:33.645Z,79.33
2022-12-16T16:25:19.100Z,81.57
2022-12-16T16:28:04.786Z,89.20
2022-12-16T16:30:52.991Z,81.07
2022-12-16T16:37:02.169Z,88.53
2022-12-16T16:39:47.314Z,98.83
2022-12-16T16:42:32.385Z,105.27
2022-12-16T16:45:17.273Z,89.67
2022-12-16T16:48:02.267Z,87.13
2022-12-16T16:50:47.250Z,95.90
2022-12-16T16:53:36.022Z,92.07
2022-12-16T16:56:22.281Z,90.67
2022-12-16T16:59:07.357Z,90.90
2022-12-16T17:01:52.801Z,90.40
2022-12-16T17:04:37.914Z,90.37
2022-12-16T17:07:22.899Z,88.03
2022-12-16T17:10:07.992Z,94.93
2022-12-16T17:12:52.861Z,84.97
2022-12-16T17:15:41.147Z,91.77
2022-12-16T17:18:26.956Z,93.93
2022-12-16T17:21:12.615Z,84.13
2022-12-16T17:23:58.370Z,82.53
2022-12-16T17:26:43.585Z,85.47
2022-12-16T17:29:43.285Z,88.37
2022-12-16T17:32:29.013Z,75.07
2022-12-16T17:35:14.054Z,86.67
2022-12-16T17:37:59.237Z,88.63
2022-12-16T17:40:44.385Z,76.73
2022-12-16T17:43:30.002Z,81.57
2022-12-16T17:46:17.959Z,83.93
2022-12-16T17:49:03.117Z,85.33
2022-12-16T17:51:48.741Z,87.37
2022-12-16T17:54:34.393Z,82.37
2022-12-16T17:57:19.603Z,77.97
2022-12-16T18:00:04.770Z,86.73
2022-12-16T18:02:49.961Z,80.30
2022-12-16T18:05:42.410Z,77.87
2022-12-16T18:08:29.177Z,81.30
2022-12-16T18:11:15.523Z,79.73
2022-12-16T18:14:01.304Z,73.07
2022-12-16T18:16:46.756Z,77.10
2022-12-16T18:19:32.897Z,80.30
2022-12-16T18:22:18.217Z,79.17
2022-12-16T18:25:03.591Z,79.77
2022-12-16T18:27:48.693Z,72.83
2022-12-16T18:30:34.310Z,79.30
2022-12-16T18:33:19.908Z,77.30
2022-12-16T18:36:05.037Z,82.03
2022-12-16T18:38:53.785Z,78.77
2022-12-16T18:41:40.695Z,76.30
2022-12-16T18:44:28.701Z,81.03
2022-12-16T18:47:13.887Z,71.30
2022-12-16T18:49:58.811Z,71.07
2022-12-16T18:52:43.823Z,72.70
2022-12-16T18:55:29.397Z,77.07
2022-12-16T18:58:42.621Z,81.37
2022-12-16T19:01:22.195Z,74.70
2022-12-16T19:04:07.519Z,77.20
2022-12-16T19:06:52.712Z,79.30
2022-12-16T19:09:37.992Z,74.50
2022-12-16T19:12:23.458Z,85.93
2022-12-16T19:15:08.320Z,79.23
2022-12-16T19:17:53.456Z,79.17
2022-12-16T19:20:40.257Z,77.73
2022-12-16T19:23:28.187Z,74.90
2022-12-16T19:26:19.951Z,76.07
2022-12-16T19:29:05.191Z,81.63
2022-12-16T19:31:53.979Z,79.20
2022-12-16T19:34:41.532Z,80.07
2022-12-16T19:37:26.786Z,82.47
2022-12-16T19:40:13.536Z,79.30
2022-12-16T19:42:58.812Z,76.13
2022-12-16T19:45:44.086Z,80.07
2022-12-16T19:48:29.184Z,76.03
2022-12-16T19:51:18.237Z,75.43
2022-12-16T19:54:03.806Z,77.97
2022-12-16T19:56:49.779Z,74.83
2022-12-16T19:59:34.871Z,74.70
2022-12-16T20:02:20.409Z,76.93
2022-12-16T20:05:05.978Z,83.20
2022-12-16T20:07:59.160Z,70.20
2022-12-16T20:10:45.959Z,75.87
2022-12-16T20:13:32.629Z,77.00
2022-12-16T20:16:32.845Z,75.50
2022-12-16T20:19:17.879Z,78.33
2022-12-16T20:22:06.940Z,78.23
2022-12-16T20:27:58.620Z,75.87
2022-12-16T20:30:43.528Z,74.13
2022-12-16T20:33:35.251Z,73.43
2022-12-16T20:36:22.456Z,75.13
2022-12-16T20:39:07.556Z,71.43
2022-12-16T20:41:55.994Z,77.43
2022-12-16T20:44:41.551Z,80.03
2022-12-16T20:47:26.478Z,77.30
2022-12-16T20:50:11.686Z,71.07
2022-12-16T20:52:56.815Z,76.83
2022-12-16T20:55:42.053Z,75.80
2022-12-16T20:58:27.608Z,72.30
2022-12-16T21:01:14.189Z,73.23
2022-12-16T21:03:59.694Z,80.83
2022-12-16T21:06:44.653Z,75.93
2022-12-16T21:09:30.040Z,75.57
2022-12-16T21:12:16.024Z,73.40
2022-12-16T21:15:01.531Z,71.17
2022-12-16T21:17:48.465Z,79.03
2022-12-16T21:20:33.750Z,79.40
2022-12-16T21:23:23.215Z,77.63
2022-12-16T21:26:08.187Z,78.40
2022-12-16T21:28:53.512Z,82.03
2022-12-16T21:31:41.420Z,86.70
2022-12-16T21:34:26.242Z,80.73
2022-12-16T21:37:11.105Z,89.83
2022-12-16T21:39:56.575Z,85.47
2022-12-16T21:42:44.057Z,84.60
2022-12-16T21:45:29.735Z,81.30
2022-12-16T21:48:15.243Z,92.77
2022-12-16T21:51:00.328Z,84.17
2022-12-16T21:53:45.942Z,91.10
2022-12-16T21:56:34.707Z,91.53
2022-12-16T21:59:19.663Z,89.50
2022-12-16T22:02:04.654Z,85.80
2022-12-16T22:04:49.988Z,83.63
2022-12-16T22:07:35.503Z,90.23
2022-12-16T22:10:21.543Z,82.17
2022-12-16T22:13:06.463Z,91.73
2022-12-16T22:15:51.703Z,86.43
2022-12-16T22:18:37.277Z,83.17
2022-12-16T22:21:23.632Z,84.00
2022-12-16T22:24:09.432Z,91.83
2022-12-16T22:26:54.373Z,88.60
2022-12-16T22:29:41.787Z,82.10
2022-12-16T22:32:27.102Z,82.43
2022-12-16T22:35:12.254Z,80.83
2022-12-16T22:36:21.173Z,81.23
2022-12-16T22:37:57.706Z,85.07
2022-12-16T22:40:42.600Z,78.87
2022-12-16T22:43:27.636Z,82.10
2022-12-16T22:46:19.754Z,80.93
2022-12-16T22:49:05.467Z,77.37
2022-12-16T22:51:51.501Z,77.23
2022-12-16T22:54:37.468Z,73.73
2022-12-16T22:57:22.507Z,76.20
2022-12-16T23:00:07.947Z,76.23
2022-12-16T23:02:52.929Z,76.10
2022-12-16T23:05:38.629Z,82.83
2022-12-16T23:08:23.987Z,80.10
2022-12-16T23:11:16.106Z,75.73
2022-12-16T23:14:01.342Z,78.27
2022-12-16T23:16:46.816Z,74.93
2022-12-16T23:19:31.867Z,78.17
2022-12-16T23:22:17.058Z,80.70
2022-12-16T23:25:01.994Z,71.93
2022-12-16T23:27:47.243Z,85.70
2022-12-16T23:30:32.611Z,77.20
2022-12-16T23:33:18.404Z,68.83
2022-12-16T23:36:03.874Z,78.17
2022-12-16T23:38:49.267Z,70.13
2022-12-16T23:41:34.494Z,72.00
2022-12-16T23:44:19.403Z,66.00
2022-12-16T23:47:04.289Z,72.60
2022-12-16T23:49:49.659Z,74.33
2022-12-16T23:52:34.881Z,75.20
2022-12-16T23:55:20.279Z,75.47
2022-12-16T23:58:05.595Z,70.83
